sensor_id;sensor_type;location;lat;lon;timestamp;pressure;altitude;pressure_sealevel;temperature;humidity
49529;BME280;35423;37.320;-121.762;2023-02-12T00:00:57;99538.08;;;26.53;14.60
49529;BME280;35423;37.320;-121.762;2023-02-12T00:03:25;99537.23;;;26.37;14.83
49529;BME280;35423;37.320;-121.762;2023-02-12T00:05:52;99539.39;;;26.85;14.74
49529;BME280;35423;37.320;-121.762;2023-02-12T00:08:18;99538.52;;;26.92;14.36
49529;BME280;35423;37.320;-121.762;2023-02-12T00:10:46;99545.03;;;26.83;14.17
49529;BME280;35423;37.320;-121.762;2023-02-12T00:13:12;99542.57;;;26.87;14.11
49529;BME280;35423;37.320;-121.762;2023-02-12T00:15:42;99541.86;;;27.26;14.22
49529;BME280;35423;37.320;-121.762;2023-02-12T00:18:06;99548.36;;;27.63;13.71
49529;BME280;35423;37.320;-121.762;2023-02-12T00:20:35;99556.14;;;27.95;13.76
49529;BME280;35423;37.320;-121.762;2023-02-12T00:23:00;99563.37;;;27.83;13.57
49529;BME280;35423;37.320;-121.762;2023-02-12T00:25:30;99568.12;;;28.33;13.81
49529;BME280;35423;37.320;-121.762;2023-02-12T00:27:58;99572.80;;;28.03;13.19
49529;BME280;35423;37.320;-121.762;2023-02-12T00:30:23;99575.43;;;27.80;13.40
49529;BME280;35423;37.320;-121.762;2023-02-12T00:32:53;99573.53;;;28.11;13.36
49529;BME280;35423;37.320;-121.762;2023-02-12T00:35:18;99573.43;;;27.70;13.62
49529;BME280;35423;37.320;-121.762;2023-02-12T00:37:44;99584.17;;;27.09;13.88
49529;BME280;35423;37.320;-121.762;2023-02-12T00:40:16;99591.46;;;27.31;13.91
49529;BME280;35423;37.320;-121.762;2023-02-12T00:42:41;99591.46;;;27.05;13.74
49529;BME280;35423;37.320;-121.762;2023-02-12T00:45:07;99589.01;;;27.18;13.97
49529;BME280;35423;37.320;-121.762;2023-02-12T00:47:32;99585.71;;;27.17;14.02
49529;BME280;35423;37.320;-121.762;2023-02-12T00:49:58;99586.67;;;27.54;13.91
49529;BME280;35423;37.320;-121.762;2023-02-12T00:52:26;99583.05;;;27.73;13.65
49529;BME280;35423;37.320;-121.762;2023-02-12T00:54:52;99579.80;;;28.03;13.58
49529;BME280;35423;37.320;-121.762;2023-02-12T00:57:23;99584.37;;;28.33;13.42
49529;BME280;35423;37.320;-121.762;2023-02-12T00:59:50;99590.20;;;28.47;13.03
49529;BME280;35423;37.320;-121.762;2023-02-12T01:02:15;99599.52;;;28.42;13.07
49529;BME280;35423;37.320;-121.762;2023-02-12T01:04:45;99605.01;;;28.34;13.25
49529;BME280;35423;37.320;-121.762;2023-02-12T01:07:06;99615.73;;;27.86;13.19
49529;BME280;35423;37.320;-121.762;2023-02-12T01:09:32;99620.41;;;27.84;13.16
49529;BME280;35423;37.320;-121.762;2023-02-12T01:11:57;99619.93;;;27.33;13.18
49529;BME280;35423;37.320;-121.762;2023-02-12T01:14:28;99613.39;;;27.38;13.49
49529;BME280;35423;37.320;-121.762;2023-02-12T01:16:56;99611.20;;;27.13;13.65
49529;BME280;35423;37.320;-121.762;2023-02-12T01:19:24;99598.96;;;26.64;13.92
49529;BME280;35423;37.320;-121.762;2023-02-12T01:21:49;99591.05;;;25.90;14.31
49529;BME280;35423;37.320;-121.762;2023-02-12T01:24:15;99594.11;;;25.71;14.64
49529;BME280;35423;37.320;-121.762;2023-02-12T01:26:42;99598.18;;;25.52;14.95
49529;BME280;35423;37.320;-121.762;2023-02-12T01:29:07;99606.00;;;25.32;15.20
49529;BME280;35423;37.320;-121.762;2023-02-12T01:31:42;99612.07;;;24.93;15.29
49529;BME280;35423;37.320;-121.762;2023-02-12T01:34:02;99611.42;;;24.81;15.37
49529;BME280;35423;37.320;-121.762;2023-02-12T01:36:31;99626.68;;;24.18;15.65
49529;BME280;35423;37.320;-121.762;2023-02-12T01:38:59;99637.02;;;24.00;15.92
49529;BME280;35423;37.320;-121.762;2023-02-12T01:41:29;99644.88;;;23.73;16.08
49529;BME280;35423;37.320;-121.762;2023-02-12T01:46:21;99677.35;;;23.27;16.55
49529;BME280;35423;37.320;-121.762;2023-02-12T01:48:48;99682.93;;;22.76;16.69
49529;BME280;35423;37.320;-121.762;2023-02-12T01:51:20;99674.98;;;22.79;16.76
49529;BME280;35423;37.320;-121.762;2023-02-12T01:53:46;99671.20;;;22.86;16.97
49529;BME280;35423;37.320;-121.762;2023-02-12T01:56:12;99679.13;;;23.20;17.07
49529;BME280;35423;37.320;-121.762;2023-02-12T01:58:43;99681.66;;;22.49;17.06
49529;BME280;35423;37.320;-121.762;2023-02-12T02:01:12;99683.43;;;22.31;17.21
49529;BME280;35423;37.320;-121.762;2023-02-12T02:03:36;99689.60;;;22.40;17.24
49529;BME280;35423;37.320;-121.762;2023-02-12T02:06:03;99692.40;;;22.23;17.42
49529;BME280;35423;37.320;-121.762;2023-02-12T02:08:27;99690.61;;;22.39;17.47
49529;BME280;35423;37.320;-121.762;2023-02-12T02:10:57;99693.85;;;22.05;17.66
49529;BME280;35423;37.320;-121.762;2023-02-12T02:13:24;99697.74;;;22.22;17.79
49529;BME280;35423;37.320;-121.762;2023-02-12T02:15:54;99699.28;;;22.16;17.88
49529;BME280;35423;37.320;-121.762;2023-02-12T02:18:22;99694.92;;;22.10;17.85
49529;BME280;35423;37.320;-121.762;2023-02-12T02:30:46;99717.08;;;21.46;18.25
49529;BME280;35423;37.320;-121.762;2023-02-12T02:33:38;99714.28;;;21.63;18.36
49529;BME280;35423;37.320;-121.762;2023-02-12T02:36:17;99713.60;;;21.28;18.32
49529;BME280;35423;37.320;-121.762;2023-02-12T02:38:32;99709.97;;;21.14;18.28
49529;BME280;35423;37.320;-121.762;2023-02-12T02:41:02;99719.02;;;21.23;18.30
49529;BME280;35423;37.320;-121.762;2023-02-12T02:43:24;99726.79;;;20.83;18.46
49529;BME280;35423;37.320;-121.762;2023-02-12T02:45:48;99729.41;;;20.95;18.56
49529;BME280;35423;37.320;-121.762;2023-02-12T02:48:15;99722.15;;;21.07;18.60
49529;BME280;35423;37.320;-121.762;2023-02-12T02:50:41;99727.69;;;21.02;18.55
49529;BME280;35423;37.320;-121.762;2023-02-12T02:53:06;99736.17;;;20.79;18.68
49529;BME280;35423;37.320;-121.762;2023-02-12T02:55:36;99745.14;;;21.07;18.78
49529;BME280;35423;37.320;-121.762;2023-02-12T02:58:03;99743.02;;;21.11;18.75
49529;BME280;35423;37.320;-121.762;2023-02-12T03:00:32;99747.18;;;20.66;18.83
49529;BME280;35423;37.320;-121.762;2023-02-12T03:02:55;99760.95;;;20.88;18.79
49529;BME280;35423;37.320;-121.762;2023-02-12T03:05:28;99759.99;;;21.12;19.04
49529;BME280;35423;37.320;-121.762;2023-02-12T03:07:52;99763.31;;;21.16;19.18
49529;BME280;35423;37.320;-121.762;2023-02-12T03:10:17;99775.12;;;21.06;19.40
49529;BME280;35423;37.320;-121.762;2023-02-12T03:12:45;99781.41;;;20.89;19.79
49529;BME280;35423;37.320;-121.762;2023-02-12T03:15:10;99778.97;;;20.85;19.96
49529;BME280;35423;37.320;-121.762;2023-02-12T03:17:44;99783.19;;;21.06;20.06
49529;BME280;35423;37.320;-121.762;2023-02-12T03:20:17;99789.57;;;21.01;19.88
49529;BME280;35423;37.320;-121.762;2023-02-12T03:22:59;99789.18;;;20.75;19.50
49529;BME280;35423;37.320;-121.762;2023-02-12T03:25:37;99785.92;;;20.93;19.42
49529;BME280;35423;37.320;-121.762;2023-02-12T03:28:11;99779.24;;;20.88;19.36
49529;BME280;35423;37.320;-121.762;2023-02-12T03:30:41;99787.86;;;20.98;19.28
49529;BME280;35423;37.320;-121.762;2023-02-12T03:33:08;99792.36;;;20.45;19.39
49529;BME280;35423;37.320;-121.762;2023-02-12T03:35:32;99798.77;;;20.42;19.50
49529;BME280;35423;37.320;-121.762;2023-02-12T03:38:04;99799.96;;;20.67;19.71
49529;BME280;35423;37.320;-121.762;2023-02-12T03:40:36;99792.69;;;20.70;19.83
49529;BME280;35423;37.320;-121.762;2023-02-12T03:43:07;99789.96;;;20.67;19.95
49529;BME280;35423;37.320;-121.762;2023-02-12T03:45:38;99795.00;;;20.36;20.04
49529;BME280;35423;37.320;-121.762;2023-02-12T03:47:58;99800.51;;;20.54;20.19
49529;BME280;35423;37.320;-121.762;2023-02-12T03:50:23;99816.76;;;20.42;20.41
49529;BME280;35423;37.320;-121.762;2023-02-12T03:52:50;99823.43;;;20.33;20.73
49529;BME280;35423;37.320;-121.762;2023-02-12T03:55:16;99827.89;;;20.22;21.13
49529;BME280;35423;37.320;-121.762;2023-02-12T03:57:47;99830.59;;;20.17;21.38
49529;BME280;35423;37.320;-121.762;2023-02-12T04:00:14;99828.50;;;20.31;21.71
49529;BME280;35423;37.320;-121.762;2023-02-12T04:02:34;99828.78;;;19.99;22.01
49529;BME280;35423;37.320;-121.762;2023-02-12T04:05:04;99822.08;;;20.13;22.15
49529;BME280;35423;37.320;-121.762;2023-02-12T04:07:26;99800.69;;;19.84;22.30
49529;BME280;35423;37.320;-121.762;2023-02-12T04:09:54;99788.37;;;19.99;22.53
49529;BME280;35423;37.320;-121.762;2023-02-12T04:12:31;99790.55;;;19.91;22.78
49529;BME280;35423;37.320;-121.762;2023-02-12T04:14:51;99806.61;;;19.85;22.85
49529;BME280;35423;37.320;-121.762;2023-02-12T04:17:20;99810.17;;;19.82;23.03
49529;BME280;35423;37.320;-121.762;2023-02-12T04:19:47;99807.60;;;20.22;23.30
49529;BME280;35423;37.320;-121.762;2023-02-12T04:22:17;99811.64;;;19.58;23.50
49529;BME280;35423;37.320;-121.762;2023-02-12T04:24:45;99799.88;;;19.49;23.57
49529;BME280;35423;37.320;-121.762;2023-02-12T04:27:11;99810.10;;;19.33;23.90
49529;BME280;35423;37.320;-121.762;2023-02-12T04:30:04;99826.90;;;19.23;24.37
49529;BME280;35423;37.320;-121.762;2023-02-12T04:32:29;99837.53;;;18.52;24.70
49529;BME280;35423;37.320;-121.762;2023-02-12T04:34:56;99839.86;;;18.82;24.80
49529;BME280;35423;37.320;-121.762;2023-02-12T04:37:27;99846.13;;;18.47;24.78
49529;BME280;35423;37.320;-121.762;2023-02-12T04:39:52;99854.17;;;18.14;25.08
49529;BME280;35423;37.320;-121.762;2023-02-12T04:42:21;99857.85;;;18.34;24.91
49529;BME280;35423;37.320;-121.762;2023-02-12T04:44:48;99849.60;;;18.40;24.81
49529;BME280;35423;37.320;-121.762;2023-02-12T04:47:19;99827.50;;;18.51;24.76
49529;BME280;35423;37.320;-121.762;2023-02-12T04:49:44;99814.33;;;18.55;24.70
49529;BME280;35423;37.320;-121.762;2023-02-12T04:52:10;99840.66;;;18.27;24.66
49529;BME280;35423;37.320;-121.762;2023-02-12T04:54:37;99875.10;;;18.36;24.68
49529;BME280;35423;37.320;-121.762;2023-02-12T04:57:03;99884.08;;;18.12;24.85
49529;BME280;35423;37.320;-121.762;2023-02-12T04:59:31;99855.06;;;18.02;25.20
49529;BME280;35423;37.320;-121.762;2023-02-12T05:01:56;99842.41;;;17.74;25.33
49529;BME280;35423;37.320;-121.762;2023-02-12T05:04:24;99865.47;;;17.84;25.59
49529;BME280;35423;37.320;-121.762;2023-02-12T05:06:49;99877.24;;;17.49;25.72
49529;BME280;35423;37.320;-121.762;2023-02-12T05:09:17;99872.54;;;17.68;25.70
49529;BME280;35423;37.320;-121.762;2023-02-12T05:11:41;99863.61;;;17.70;25.80
49529;BME280;35423;37.320;-121.762;2023-02-12T05:14:10;99846.88;;;17.49;25.95
49529;BME280;35423;37.320;-121.762;2023-02-12T05:16:34;99844.75;;;17.43;25.97
49529;BME280;35423;37.320;-121.762;2023-02-12T05:19:01;99851.71;;;17.84;26.20
49529;BME280;35423;37.320;-121.762;2023-02-12T05:21:27;99857.78;;;17.48;26.28
49529;BME280;35423;37.320;-121.762;2023-02-12T05:23:55;99863.14;;;17.41;26.38
49529;BME280;35423;37.320;-121.762;2023-02-12T05:26:23;99858.54;;;17.31;26.45
49529;BME280;35423;37.320;-121.762;2023-02-12T05:28:50;99858.02;;;17.52;26.50
49529;BME280;35423;37.320;-121.762;2023-02-12T05:31:18;99856.03;;;17.38;26.67
49529;BME280;35423;37.320;-121.762;2023-02-12T05:33:51;99857.72;;;17.02;26.75
49529;BME280;35423;37.320;-121.762;2023-02-12T05:36:09;99861.32;;;17.17;26.81
49529;BME280;35423;37.320;-121.762;2023-02-12T05:38:37;99863.42;;;16.78;26.92
49529;BME280;35423;37.320;-121.762;2023-02-12T05:41:03;99860.09;;;17.04;26.89
49529;BME280;35423;37.320;-121.762;2023-02-12T05:43:30;99856.83;;;16.99;26.97
49529;BME280;35423;37.320;-121.762;2023-02-12T05:46:00;99854.44;;;16.94;27.03
49529;BME280;35423;37.320;-121.762;2023-02-12T05:48:28;99852.54;;;16.88;27.02
49529;BME280;35423;37.320;-121.762;2023-02-12T05:51:02;99849.57;;;16.77;27.05
49529;BME280;35423;37.320;-121.762;2023-02-12T05:53:25;99846.19;;;16.36;27.20
49529;BME280;35423;37.320;-121.762;2023-02-12T05:55:51;99850.10;;;16.51;27.21
49529;BME280;35423;37.320;-121.762;2023-02-12T05:58:27;99848.06;;;16.67;27.32
49529;BME280;35423;37.320;-121.762;2023-02-12T06:00:53;99843.10;;;16.59;27.43
49529;BME280;35423;37.320;-121.762;2023-02-12T06:03:24;99841.05;;;16.32;27.49
49529;BME280;35423;37.320;-121.762;2023-02-12T06:05:50;99842.38;;;16.44;27.58
49529;BME280;35423;37.320;-121.762;2023-02-12T06:08:19;99847.91;;;16.35;27.63
49529;BME280;35423;37.320;-121.762;2023-02-12T06:10:45;99845.86;;;16.24;27.74
49529;BME280;35423;37.320;-121.762;2023-02-12T06:13:20;99845.22;;;16.38;27.79
49529;BME280;35423;37.320;-121.762;2023-02-12T06:15:55;99844.71;;;16.27;27.88
49529;BME280;35423;37.320;-121.762;2023-02-12T06:18:22;99842.94;;;15.96;28.01
49529;BME280;35423;37.320;-121.762;2023-02-12T06:20:48;99845.27;;;16.06;28.11
49529;BME280;35423;37.320;-121.762;2023-02-12T06:23:17;99847.42;;;15.96;28.16
49529;BME280;35423;37.320;-121.762;2023-02-12T06:25:46;99849.42;;;15.69;28.18
49529;BME280;35423;37.320;-121.762;2023-02-12T06:28:14;99842.99;;;16.18;28.24
49529;BME280;35423;37.320;-121.762;2023-02-12T06:30:41;99843.35;;;15.63;28.29
49529;BME280;35423;37.320;-121.762;2023-02-12T06:33:12;99844.52;;;15.81;28.35
49529;BME280;35423;37.320;-121.762;2023-02-12T06:35:38;99849.11;;;16.23;28.35
49529;BME280;35423;37.320;-121.762;2023-02-12T06:38:09;99846.61;;;15.70;28.32
49529;BME280;35423;37.320;-121.762;2023-02-12T06:40:35;99844.96;;;15.87;28.40
49529;BME280;35423;37.320;-121.762;2023-02-12T06:43:01;99848.08;;;15.47;28.55
49529;BME280;35423;37.320;-121.762;2023-02-12T06:45:40;99848.68;;;15.66;28.54
49529;BME280;35423;37.320;-121.762;2023-02-12T06:48:04;99847.33;;;15.33;28.62
49529;BME280;35423;37.320;-121.762;2023-02-12T06:50:40;99854.72;;;15.53;28.75
49529;BME280;35423;37.320;-121.762;2023-02-12T06:53:06;99858.20;;;15.47;28.78
49529;BME280;35423;37.320;-121.762;2023-02-12T06:55:34;99854.96;;;15.61;28.86
49529;BME280;35423;37.320;-121.762;2023-02-12T06:58:16;99856.06;;;15.49;28.96
49529;BME280;35423;37.320;-121.762;2023-02-12T07:00:42;99853.61;;;15.18;28.97
49529;BME280;35423;37.320;-121.762;2023-02-12T07:03:16;99852.62;;;15.13;29.01
49529;BME280;35423;37.320;-121.762;2023-02-12T07:05:42;99849.26;;;15.35;28.97
49529;BME280;35423;37.320;-121.762;2023-02-12T07:08:07;99848.10;;;15.12;28.96
49529;BME280;35423;37.320;-121.762;2023-02-12T07:10:35;99849.13;;;15.31;28.90
49529;BME280;35423;37.320;-121.762;2023-02-12T07:12:59;99847.06;;;15.20;28.94
49529;BME280;35423;37.320;-121.762;2023-02-12T07:15:25;99848.28;;;14.91;28.90
49529;BME280;35423;37.320;-121.762;2023-02-12T07:17:51;99848.28;;;15.07;28.90
49529;BME280;35423;37.320;-121.762;2023-02-12T07:20:26;99845.85;;;14.98;28.98
49529;BME280;35423;37.320;-121.762;2023-02-12T07:22:54;99846.16;;;14.98;28.98
49529;BME280;35423;37.320;-121.762;2023-02-12T07:25:23;99843.45;;;14.85;29.14
49529;BME280;35423;37.320;-121.762;2023-02-12T07:27:57;99840.23;;;14.84;29.10
49529;BME280;35423;37.320;-121.762;2023-02-12T07:30:22;99843.72;;;14.81;29.13
49529;BME280;35423;37.320;-121.762;2023-02-12T07:32:49;99850.12;;;14.78;29.24
49529;BME280;35423;37.320;-121.762;2023-02-12T07:35:14;99856.09;;;14.77;29.27
49529;BME280;35423;37.320;-121.762;2023-02-12T07:37:40;99857.36;;;14.75;29.35
49529;BME280;35423;37.320;-121.762;2023-02-12T07:40:11;99854.52;;;14.70;29.34
49529;BME280;35423;37.320;-121.762;2023-02-12T07:42:37;99849.88;;;14.66;29.25
49529;BME280;35423;37.320;-121.762;2023-02-12T07:45:03;99847.99;;;14.43;29.24
49529;BME280;35423;37.320;-121.762;2023-02-12T07:47:29;99849.14;;;14.65;29.35
49529;BME280;35423;37.320;-121.762;2023-02-12T07:50:00;99850.57;;;14.64;29.46
49529;BME280;35423;37.320;-121.762;2023-02-12T07:52:27;99855.18;;;14.40;29.62
49529;BME280;35423;37.320;-121.762;2023-02-12T07:54:59;99849.89;;;14.61;29.53
49529;BME280;35423;37.320;-121.762;2023-02-12T07:57:38;99846.68;;;14.58;29.59
49529;BME280;35423;37.320;-121.762;2023-02-12T08:00:19;99846.89;;;14.58;29.55
49529;BME280;35423;37.320;-121.762;2023-02-12T08:02:50;99851.69;;;14.70;29.16
49529;BME280;35423;37.320;-121.762;2023-02-12T08:05:13;99854.39;;;14.57;29.00
49529;BME280;35423;37.320;-121.762;2023-02-12T08:07:38;99865.41;;;14.46;29.02
49529;BME280;35423;37.320;-121.762;2023-02-12T08:10:10;99866.87;;;14.40;29.04
49529;BME280;35423;37.320;-121.762;2023-02-12T08:12:37;99865.06;;;14.35;29.13
49529;BME280;35423;37.320;-121.762;2023-02-12T08:15:04;99863.52;;;14.29;29.07
49529;BME280;35423;37.320;-121.762;2023-02-12T08:17:29;99866.81;;;14.23;29.07
49529;BME280;35423;37.320;-121.762;2023-02-12T08:19:56;99874.47;;;14.20;29.10
49529;BME280;35423;37.320;-121.762;2023-02-12T08:22:20;99876.86;;;14.12;29.03
49529;BME280;35423;37.320;-121.762;2023-02-12T08:24:47;99879.32;;;14.36;28.91
49529;BME280;35423;37.320;-121.762;2023-02-12T08:27:13;99878.20;;;14.09;28.90
49529;BME280;35423;37.320;-121.762;2023-02-12T08:29:41;99878.48;;;14.04;28.84
49529;BME280;35423;37.320;-121.762;2023-02-12T08:32:10;99878.36;;;14.02;28.84
49529;BME280;35423;37.320;-121.762;2023-02-12T08:34:34;99882.08;;;13.96;28.86
49529;BME280;35423;37.320;-121.762;2023-02-12T08:36:59;99880.28;;;13.89;28.90
49529;BME280;35423;37.320;-121.762;2023-02-12T08:39:31;99879.86;;;14.11;28.96
49529;BME280;35423;37.320;-121.762;2023-02-12T08:41:57;99880.48;;;13.78;28.98
49529;BME280;35423;37.320;-121.762;2023-02-12T08:44:26;99882.26;;;14.26;28.93
49529;BME280;35423;37.320;-121.762;2023-02-12T08:47:02;99877.90;;;13.98;28.91
49529;BME280;35423;37.320;-121.762;2023-02-12T08:49:25;99871.68;;;14.17;28.87
49529;BME280;35423;37.320;-121.762;2023-02-12T08:51:58;99870.26;;;13.91;28.92
49529;BME280;35423;37.320;-121.762;2023-02-12T08:54:25;99870.60;;;14.14;28.98
49529;BME280;35423;37.320;-121.762;2023-02-12T08:56:49;99874.02;;;14.08;29.12
49529;BME280;35423;37.320;-121.762;2023-02-12T08:59:17;99873.21;;;14.07;29.14
49529;BME280;35423;37.320;-121.762;2023-02-12T09:01:50;99880.96;;;14.04;29.16
49529;BME280;35423;37.320;-121.762;2023-02-12T09:04:18;99887.43;;;13.75;29.32
49529;BME280;35423;37.320;-121.762;2023-02-12T09:06:43;99891.04;;;13.97;29.41
49529;BME280;35423;37.320;-121.762;2023-02-12T09:09:11;99893.39;;;13.94;29.52
49529;BME280;35423;37.320;-121.762;2023-02-12T09:11:38;99897.93;;;13.88;29.66
49529;BME280;35423;37.320;-121.762;2023-02-12T09:14:17;99895.40;;;14.08;29.80
49529;BME280;35423;37.320;-121.762;2023-02-12T09:16:43;99891.38;;;13.75;29.94
49529;BME280;35423;37.320;-121.762;2023-02-12T09:19:08;99888.79;;;13.69;30.02
49529;BME280;35423;37.320;-121.762;2023-02-12T09:21:33;99885.12;;;13.37;30.17
49529;BME280;35423;37.320;-121.762;2023-02-12T09:23:59;99882.42;;;13.56;30.16
49529;BME280;35423;37.320;-121.762;2023-02-12T09:26:25;99883.36;;;13.75;30.16
49529;BME280;35423;37.320;-121.762;2023-02-12T09:28:50;99885.33;;;13.52;30.23
49529;BME280;35423;37.320;-121.762;2023-02-12T09:31:19;99886.23;;;13.44;30.32
49529;BME280;35423;37.320;-121.762;2023-02-12T09:33:44;99891.33;;;13.34;30.39
49529;BME280;35423;37.320;-121.762;2023-02-12T09:36:12;99892.47;;;13.35;30.28
49529;BME280;35423;37.320;-121.762;2023-02-12T09:38:35;99893.15;;;13.35;30.24
49529;BME280;35423;37.320;-121.762;2023-02-12T09:41:16;99892.94;;;13.54;30.31
49529;BME280;35423;37.320;-121.762;2023-02-12T09:43:34;99894.35;;;13.25;30.40
49529;BME280;35423;37.320;-121.762;2023-02-12T09:46:07;99898.90;;;13.24;30.34
49529;BME280;35423;37.320;-121.762;2023-02-12T09:48:40;99902.79;;;13.37;30.39
49529;BME280;35423;37.320;-121.762;2023-02-12T09:51:01;99904.71;;;13.33;30.37
49529;BME280;35423;37.320;-121.762;2023-02-12T09:53:27;99907.77;;;13.07;30.34
49529;BME280;35423;37.320;-121.762;2023-02-12T09:55:51;99907.95;;;13.29;30.32
49529;BME280;35423;37.320;-121.762;2023-02-12T09:58:21;99911.25;;;13.25;30.37
49529;BME280;35423;37.320;-121.762;2023-02-12T10:00:43;99914.12;;;13.22;30.42
49529;BME280;35423;37.320;-121.762;2023-02-12T10:03:16;99915.85;;;13.18;30.47
49529;BME280;35423;37.320;-121.762;2023-02-12T10:05:41;99916.64;;;13.15;30.49
49529;BME280;35423;37.320;-121.762;2023-02-12T10:08:11;99921.14;;;13.15;30.50
49529;BME280;35423;37.320;-121.762;2023-02-12T10:10:41;99919.85;;;13.11;30.56
49529;BME280;35423;37.320;-121.762;2023-02-12T10:13:06;99917.23;;;13.10;30.60
49529;BME280;35423;37.320;-121.762;2023-02-12T10:15:34;99916.47;;;12.83;30.69
49529;BME280;35423;37.320;-121.762;2023-02-12T10:17:57;99913.78;;;13.07;30.65
49529;BME280;35423;37.320;-121.762;2023-02-12T10:20:34;99915.38;;;12.79;30.72
49529;BME280;35423;37.320;-121.762;2023-02-12T10:23:02;99922.94;;;12.74;30.76
49529;BME280;35423;37.320;-121.762;2023-02-12T10:25:30;99931.66;;;12.92;30.77
49529;BME280;35423;37.320;-121.762;2023-02-12T10:27:55;99936.10;;;12.67;30.77
49529;BME280;35423;37.320;-121.762;2023-02-12T10:30:20;99931.63;;;12.63;30.80
49529;BME280;35423;37.320;-121.762;2023-02-12T10:32:45;99927.67;;;13.07;30.86
49529;BME280;35423;37.320;-121.762;2023-02-12T10:35:14;99924.60;;;13.04;30.86
49529;BME280;35423;37.320;-121.762;2023-02-12T10:37:41;99920.34;;;13.01;30.88
49529;BME280;35423;37.320;-121.762;2023-02-12T10:40:09;99922.02;;;12.73;30.89
49529;BME280;35423;37.320;-121.762;2023-02-12T10:42:36;99925.47;;;12.70;30.93
49529;BME280;35423;37.320;-121.762;2023-02-12T10:44:55;99924.82;;;12.67;31.01
49529;BME280;35423;37.320;-121.762;2023-02-12T10:47:22;99924.06;;;12.91;31.07
49529;BME280;35423;37.320;-121.762;2023-02-12T10:49:50;99926.89;;;12.92;31.02
49529;BME280;35423;37.320;-121.762;2023-02-12T10:52:18;99925.86;;;12.91;31.03
49529;BME280;35423;37.320;-121.762;2023-02-12T10:54:43;99918.63;;;12.85;31.11
49529;BME280;35423;37.320;-121.762;2023-02-12T10:57:14;99915.27;;;12.51;31.21
49529;BME280;35423;37.320;-121.762;2023-02-12T10:59:36;99917.34;;;12.75;31.18
49529;BME280;35423;37.320;-121.762;2023-02-12T11:04:36;99919.40;;;12.61;31.31
49529;BME280;35423;37.320;-121.762;2023-02-12T11:07:03;99917.17;;;12.32;31.38
49529;BME280;35423;37.320;-121.762;2023-02-12T11:09:33;99914.47;;;12.57;31.48
49529;BME280;35423;37.320;-121.762;2023-02-12T11:11:56;99911.50;;;12.57;31.49
49529;BME280;35423;37.320;-121.762;2023-02-12T11:14:23;99908.18;;;12.56;31.52
49529;BME280;35423;37.320;-121.762;2023-02-12T11:16:53;99910.24;;;12.53;31.51
49529;BME280;35423;37.320;-121.762;2023-02-12T11:19:20;99910.11;;;12.50;31.52
49529;BME280;35423;37.320;-121.762;2023-02-12T11:21:38;99910.19;;;12.46;31.57
49529;BME280;35423;37.320;-121.762;2023-02-12T11:26:32;99915.41;;;12.45;31.53
49529;BME280;35423;37.320;-121.762;2023-02-12T11:28:58;99920.67;;;12.46;31.51
49529;BME280;35423;37.320;-121.762;2023-02-12T11:31:25;99921.51;;;12.43;31.47
49529;BME280;35423;37.320;-121.762;2023-02-12T11:36:19;99914.91;;;12.42;31.54
49529;BME280;35423;37.320;-121.762;2023-02-12T11:38:55;99910.93;;;12.37;31.57
49529;BME280;35423;37.320;-121.762;2023-02-12T11:41:31;99909.55;;;12.29;31.72
49529;BME280;35423;37.320;-121.762;2023-02-12T11:43:47;99911.07;;;12.24;31.80
49529;BME280;35423;37.320;-121.762;2023-02-12T11:46:18;99915.08;;;12.24;31.77
49529;BME280;35423;37.320;-121.762;2023-02-12T11:48:48;99918.49;;;12.24;31.75
49529;BME280;35423;37.320;-121.762;2023-02-12T11:51:18;99924.64;;;12.20;31.79
49529;BME280;35423;37.320;-121.762;2023-02-12T11:53:41;99926.43;;;12.18;31.85
49529;BME280;35423;37.320;-121.762;2023-02-12T11:56:11;99928.87;;;12.19;31.82
49529;BME280;35423;37.320;-121.762;2023-02-12T11:58:35;99931.15;;;12.19;31.81
49529;BME280;35423;37.320;-121.762;2023-02-12T12:01:09;99932.83;;;12.13;31.87
49529;BME280;35423;37.320;-121.762;2023-02-12T12:03:28;99942.33;;;12.09;31.88
49529;BME280;35423;37.320;-121.762;2023-02-12T12:05:48;99944.87;;;12.08;31.86
49529;BME280;35423;37.320;-121.762;2023-02-12T12:08:19;99948.62;;;12.06;31.86
49529;BME280;35423;37.320;-121.762;2023-02-12T12:10:43;99942.85;;;12.20;32.01
49529;BME280;35423;37.320;-121.762;2023-02-12T12:13:10;99944.45;;;11.94;32.07
49529;BME280;35423;37.320;-121.762;2023-02-12T12:15:45;99947.81;;;12.09;32.20
49529;BME280;35423;37.320;-121.762;2023-02-12T12:18:19;99944.26;;;12.43;32.10
49529;BME280;35423;37.320;-121.762;2023-02-12T12:20:38;99937.93;;;11.90;32.12
49529;BME280;35423;37.320;-121.762;2023-02-12T12:23:01;99931.35;;;12.32;32.22
49529;BME280;35423;37.320;-121.762;2023-02-12T12:25:32;99934.38;;;11.78;32.25
49529;BME280;35423;37.320;-121.762;2023-02-12T12:28:00;99935.82;;;11.73;32.25
49529;BME280;35423;37.320;-121.762;2023-02-12T12:30:26;99938.77;;;11.67;32.36
49529;BME280;35423;37.320;-121.762;2023-02-12T12:32:47;99933.14;;;12.18;32.31
49529;BME280;35423;37.320;-121.762;2023-02-12T12:35:17;99928.35;;;11.67;32.34
49529;BME280;35423;37.320;-121.762;2023-02-12T12:37:41;99918.93;;;11.89;32.31
49529;BME280;35423;37.320;-121.762;2023-02-12T12:40:18;99911.76;;;12.12;32.34
49529;BME280;35423;37.320;-121.762;2023-02-12T12:42:49;99916.60;;;11.80;32.38
49529;BME280;35423;37.320;-121.762;2023-02-12T12:45:12;99918.53;;;12.03;32.46
49529;BME280;35423;37.320;-121.762;2023-02-12T12:47:32;99910.52;;;11.73;32.53
49529;BME280;35423;37.320;-121.762;2023-02-12T12:50:02;99905.73;;;11.70;32.54
49529;BME280;35423;37.320;-121.762;2023-02-12T12:54:57;99908.38;;;11.95;32.50